sensor_id;sensor_type;location;lat;lon;timestamp;P1;durP1;ratioP1;P2;durP2;ratioP2
73951;SDS011;62304;47.662;18.324;2023-11-21T00:00:03;13.82;;;6.40;;
73951;SDS011;62304;47.662;18.324;2023-11-21T00:03:13;16.83;;;6.80;;
73951;SDS011;62304;47.662;18.324;2023-11-21T00:06:18;14.15;;;6.82;;
73951;SDS011;62304;47.662;18.324;2023-11-21T00:09:21;12.70;;;5.97;;
73951;SDS011;62304;47.662;18.324;2023-11-21T00:12:24;13.30;;;6.68;;
73951;SDS011;62304;47.662;18.324;2023-11-21T00:15:27;12.98;;;5.90;;
73951;SDS011;62304;47.662;18.324;2023-11-21T00:18:30;13.37;;;6.33;;
73951;SDS011;62304;47.662;18.324;2023-11-21T00:21:33;12.00;;;6.67;;
73951;SDS011;62304;47.662;18.324;2023-11-21T00:24:36;15.50;;;6.47;;
73951;SDS011;62304;47.662;18.324;2023-11-21T00:27:38;12.55;;;5.90;;
73951;SDS011;62304;47.662;18.324;2023-11-21T00:30:42;14.52;;;6.15;;
73951;SDS011;62304;47.662;18.324;2023-11-21T00:33:45;14.33;;;6.23;;
73951;SDS011;62304;47.662;18.324;2023-11-21T00:36:48;11.27;;;5.93;;
73951;SDS011;62304;47.662;18.324;2023-11-21T00:39:50;14.35;;;6.28;;
73951;SDS011;62304;47.662;18.324;2023-11-21T00:42:54;12.35;;;6.30;;
73951;SDS011;62304;47.662;18.324;2023-11-21T00:45:59;11.93;;;5.95;;
73951;SDS011;62304;47.662;18.324;2023-11-21T00:49:02;14.07;;;6.00;;
73951;SDS011;62304;47.662;18.324;2023-11-21T00:52:08;13.13;;;6.40;;
73951;SDS011;62304;47.662;18.324;2023-11-21T00:55:11;12.45;;;6.20;;
73951;SDS011;62304;47.662;18.324;2023-11-21T00:58:14;14.95;;;7.18;;
73951;SDS011;62304;47.662;18.324;2023-11-21T01:01:18;10.73;;;6.05;;
73951;SDS011;62304;47.662;18.324;2023-11-21T01:04:22;13.17;;;6.87;;
73951;SDS011;62304;47.662;18.324;2023-11-21T01:07:25;15.97;;;7.70;;
73951;SDS011;62304;47.662;18.324;2023-11-21T01:10:29;12.77;;;7.05;;
73951;SDS011;62304;47.662;18.324;2023-11-21T01:13:32;14.15;;;6.53;;
73951;SDS011;62304;47.662;18.324;2023-11-21T01:16:35;12.98;;;6.68;;
73951;SDS011;62304;47.662;18.324;2023-11-21T01:19:39;13.50;;;6.70;;
73951;SDS011;62304;47.662;18.324;2023-11-21T01:22:42;18.27;;;8.38;;
73951;SDS011;62304;47.662;18.324;2023-11-21T01:25:46;13.98;;;7.87;;
73951;SDS011;62304;47.662;18.324;2023-11-21T01:28:48;18.00;;;9.02;;
73951;SDS011;62304;47.662;18.324;2023-11-21T01:31:52;31.58;;;13.30;;
73951;SDS011;62304;47.662;18.324;2023-11-21T01:34:55;29.83;;;11.70;;
73951;SDS011;62304;47.662;18.324;2023-11-21T01:37:58;17.48;;;7.68;;
73951;SDS011;62304;47.662;18.324;2023-11-21T01:41:01;17.60;;;8.32;;
73951;SDS011;62304;47.662;18.324;2023-11-21T01:44:04;16.42;;;7.18;;
73951;SDS011;62304;47.662;18.324;2023-11-21T01:47:10;16.05;;;6.87;;
73951;SDS011;62304;47.662;18.324;2023-11-21T01:50:14;16.90;;;8.47;;
73951;SDS011;62304;47.662;18.324;2023-11-21T01:53:19;11.40;;;6.28;;
73951;SDS011;62304;47.662;18.324;2023-11-21T01:56:24;15.05;;;7.00;;
73951;SDS011;62304;47.662;18.324;2023-11-21T01:59:35;17.33;;;7.82;;
73951;SDS011;62304;47.662;18.324;2023-11-21T02:02:39;14.43;;;8.35;;
73951;SDS011;62304;47.662;18.324;2023-11-21T02:05:43;20.50;;;8.27;;
73951;SDS011;62304;47.662;18.324;2023-11-21T02:08:46;14.43;;;7.40;;
73951;SDS011;62304;47.662;18.324;2023-11-21T02:11:49;13.73;;;7.65;;
73951;SDS011;62304;47.662;18.324;2023-11-21T02:14:52;17.67;;;7.25;;
73951;SDS011;62304;47.662;18.324;2023-11-21T02:17:55;18.33;;;7.55;;
73951;SDS011;62304;47.662;18.324;2023-11-21T02:20:58;13.87;;;7.00;;
73951;SDS011;62304;47.662;18.324;2023-11-21T02:24:01;17.15;;;8.18;;
73951;SDS011;62304;47.662;18.324;2023-11-21T02:27:04;15.90;;;7.25;;
73951;SDS011;62304;47.662;18.324;2023-11-21T02:30:08;16.05;;;8.00;;
73951;SDS011;62304;47.662;18.324;2023-11-21T02:33:17;17.12;;;7.97;;
73951;SDS011;62304;47.662;18.324;2023-11-21T02:36:20;17.77;;;8.37;;
73951;SDS011;62304;47.662;18.324;2023-11-21T02:39:24;135.23;;;53.80;;
73951;SDS011;62304;47.662;18.324;2023-11-21T02:42:27;58.90;;;28.42;;
73951;SDS011;62304;47.662;18.324;2023-11-21T02:45:30;50.30;;;24.40;;
73951;SDS011;62304;47.662;18.324;2023-11-21T02:48:33;45.53;;;20.88;;
73951;SDS011;62304;47.662;18.324;2023-11-21T02:51:37;67.83;;;27.53;;
73951;SDS011;62304;47.662;18.324;2023-11-21T02:54:42;187.88;;;74.37;;
73951;SDS011;62304;47.662;18.324;2023-11-21T02:57:45;154.82;;;62.03;;
73951;SDS011;62304;47.662;18.324;2023-11-21T03:00:48;80.90;;;33.65;;
73951;SDS011;62304;47.662;18.324;2023-11-21T03:03:52;43.95;;;19.55;;
73951;SDS011;62304;47.662;18.324;2023-11-21T03:06:55;35.50;;;16.87;;
73951;SDS011;62304;47.662;18.324;2023-11-21T03:09:58;27.17;;;13.62;;
73951;SDS011;62304;47.662;18.324;2023-11-21T03:13:00;40.75;;;18.87;;
73951;SDS011;62304;47.662;18.324;2023-11-21T03:16:04;42.65;;;18.83;;
73951;SDS011;62304;47.662;18.324;2023-11-21T03:19:07;37.53;;;16.75;;
73951;SDS011;62304;47.662;18.324;2023-11-21T03:22:13;35.83;;;17.47;;
73951;SDS011;62304;47.662;18.324;2023-11-21T03:25:16;35.85;;;16.37;;
73951;SDS011;62304;47.662;18.324;2023-11-21T03:28:20;36.72;;;16.67;;
73951;SDS011;62304;47.662;18.324;2023-11-21T03:31:23;34.05;;;16.87;;
73951;SDS011;62304;47.662;18.324;2023-11-21T03:34:27;33.60;;;16.15;;
73951;SDS011;62304;47.662;18.324;2023-11-21T03:37:30;36.83;;;17.97;;
73951;SDS011;62304;47.662;18.324;2023-11-21T03:40:35;35.13;;;15.73;;
73951;SDS011;62304;47.662;18.324;2023-11-21T03:43:38;31.20;;;14.32;;
73951;SDS011;62304;47.662;18.324;2023-11-21T03:46:42;27.48;;;12.90;;
73951;SDS011;62304;47.662;18.324;2023-11-21T03:49:46;25.98;;;12.82;;
73951;SDS011;62304;47.662;18.324;2023-11-21T03:52:50;31.13;;;13.43;;
73951;SDS011;62304;47.662;18.324;2023-11-21T03:55:53;30.40;;;14.05;;
73951;SDS011;62304;47.662;18.324;2023-11-21T03:58:56;33.33;;;14.05;;
73951;SDS011;62304;47.662;18.324;2023-11-21T04:02:00;28.08;;;13.05;;
73951;SDS011;62304;47.662;18.324;2023-11-21T04:05:03;25.80;;;12.35;;
73951;SDS011;62304;47.662;18.324;2023-11-21T04:08:07;27.87;;;13.00;;
73951;SDS011;62304;47.662;18.324;2023-11-21T04:11:11;31.12;;;13.88;;
73951;SDS011;62304;47.662;18.324;2023-11-21T04:14:18;24.08;;;12.60;;
73951;SDS011;62304;47.662;18.324;2023-11-21T04:17:21;36.60;;;15.93;;
73951;SDS011;62304;47.662;18.324;2023-11-21T04:20:24;29.52;;;14.10;;
73951;SDS011;62304;47.662;18.324;2023-11-21T04:23:28;25.80;;;11.47;;
73951;SDS011;62304;47.662;18.324;2023-11-21T04:26:33;17.33;;;8.65;;
73951;SDS011;62304;47.662;18.324;2023-11-21T04:29:37;24.30;;;8.75;;
73951;SDS011;62304;47.662;18.324;2023-11-21T04:32:39;14.07;;;7.72;;
73951;SDS011;62304;47.662;18.324;2023-11-21T04:35:43;17.75;;;7.80;;
73951;SDS011;62304;47.662;18.324;2023-11-21T04:38:46;12.47;;;7.00;;
73951;SDS011;62304;47.662;18.324;2023-11-21T04:41:49;16.58;;;7.57;;
73951;SDS011;62304;47.662;18.324;2023-11-21T04:44:52;22.08;;;11.30;;
73951;SDS011;62304;47.662;18.324;2023-11-21T04:47:55;20.62;;;10.20;;
73951;SDS011;62304;47.662;18.324;2023-11-21T04:50:59;21.95;;;10.05;;
73951;SDS011;62304;47.662;18.324;2023-11-21T04:54:02;16.77;;;8.70;;
73951;SDS011;62304;47.662;18.324;2023-11-21T04:57:05;17.20;;;8.32;;
73951;SDS011;62304;47.662;18.324;2023-11-21T05:00:10;14.95;;;7.62;;
73951;SDS011;62304;47.662;18.324;2023-11-21T05:03:15;18.37;;;8.40;;
73951;SDS011;62304;47.662;18.324;2023-11-21T05:06:18;14.40;;;8.20;;
73951;SDS011;62304;47.662;18.324;2023-11-21T05:09:24;14.90;;;7.87;;
73951;SDS011;62304;47.662;18.324;2023-11-21T05:12:28;15.48;;;7.10;;
73951;SDS011;62304;47.662;18.324;2023-11-21T05:15:40;17.65;;;8.40;;
73951;SDS011;62304;47.662;18.324;2023-11-21T05:18:47;14.55;;;7.78;;
73951;SDS011;62304;47.662;18.324;2023-11-21T05:21:52;16.87;;;7.73;;
73951;SDS011;62304;47.662;18.324;2023-11-21T05:24:56;21.52;;;8.73;;
73951;SDS011;62304;47.662;18.324;2023-11-21T05:27:59;21.98;;;10.13;;
73951;SDS011;62304;47.662;18.324;2023-11-21T05:31:05;20.85;;;8.85;;
73951;SDS011;62304;47.662;18.324;2023-11-21T05:34:17;16.02;;;9.10;;
73951;SDS011;62304;47.662;18.324;2023-11-21T05:37:21;16.03;;;8.30;;
73951;SDS011;62304;47.662;18.324;2023-11-21T05:40:32;15.95;;;8.82;;
73951;SDS011;62304;47.662;18.324;2023-11-21T05:43:46;18.33;;;8.75;;
73951;SDS011;62304;47.662;18.324;2023-11-21T05:46:53;19.65;;;10.10;;
73951;SDS011;62304;47.662;18.324;2023-11-21T05:49:58;17.95;;;9.52;;
73951;SDS011;62304;47.662;18.324;2023-11-21T05:53:01;18.00;;;9.40;;
73951;SDS011;62304;47.662;18.324;2023-11-21T05:56:06;17.07;;;9.50;;
73951;SDS011;62304;47.662;18.324;2023-11-21T05:59:09;20.62;;;11.52;;
73951;SDS011;62304;47.662;18.324;2023-11-21T06:02:13;20.80;;;10.98;;
73951;SDS011;62304;47.662;18.324;2023-11-21T06:05:27;18.58;;;9.77;;
73951;SDS011;62304;47.662;18.324;2023-11-21T06:08:32;18.77;;;10.20;;
73951;SDS011;62304;47.662;18.324;2023-11-21T06:11:42;23.08;;;10.15;;
73951;SDS011;62304;47.662;18.324;2023-11-21T06:14:49;23.60;;;11.10;;
73951;SDS011;62304;47.662;18.324;2023-11-21T06:17:59;18.62;;;9.25;;
73951;SDS011;62304;47.662;18.324;2023-11-21T06:21:02;16.50;;;8.50;;
73951;SDS011;62304;47.662;18.324;2023-11-21T06:24:06;16.70;;;8.70;;
73951;SDS011;62304;47.662;18.324;2023-11-21T06:27:09;30.77;;;13.30;;
73951;SDS011;62304;47.662;18.324;2023-11-21T06:30:14;22.90;;;11.20;;
73951;SDS011;62304;47.662;18.324;2023-11-21T06:33:48;25.90;;;11.05;;
73951;SDS011;62304;47.662;18.324;2023-11-21T06:36:52;20.75;;;9.63;;
73951;SDS011;62304;47.662;18.324;2023-11-21T06:39:56;20.27;;;10.17;;
73951;SDS011;62304;47.662;18.324;2023-11-21T06:43:01;31.97;;;13.87;;
73951;SDS011;62304;47.662;18.324;2023-11-21T06:46:05;37.25;;;13.75;;
73951;SDS011;62304;47.662;18.324;2023-11-21T06:49:08;24.40;;;11.82;;
73951;SDS011;62304;47.662;18.324;2023-11-21T06:52:11;32.03;;;12.30;;
73951;SDS011;62304;47.662;18.324;2023-11-21T06:55:15;29.17;;;12.30;;
73951;SDS011;62304;47.662;18.324;2023-11-21T06:58:18;27.85;;;13.15;;
73951;SDS011;62304;47.662;18.324;2023-11-21T07:01:22;37.50;;;16.10;;
73951;SDS011;62304;47.662;18.324;2023-11-21T07:04:27;36.65;;;15.60;;
73951;SDS011;62304;47.662;18.324;2023-11-21T07:07:30;33.50;;;15.63;;
73951;SDS011;62304;47.662;18.324;2023-11-21T07:10:38;39.07;;;17.27;;
73951;SDS011;62304;47.662;18.324;2023-11-21T07:13:43;31.33;;;13.15;;
73951;SDS011;62304;47.662;18.324;2023-11-21T07:16:46;31.42;;;14.18;;
73951;SDS011;62304;47.662;18.324;2023-11-21T07:19:51;41.40;;;15.88;;
73951;SDS011;62304;47.662;18.324;2023-11-21T07:22:55;37.40;;;15.68;;
73951;SDS011;62304;47.662;18.324;2023-11-21T07:25:59;58.20;;;27.20;;
73951;SDS011;62304;47.662;18.324;2023-11-21T07:29:03;41.37;;;20.33;;
73951;SDS011;62304;47.662;18.324;2023-11-21T07:32:06;45.75;;;21.87;;
73951;SDS011;62304;47.662;18.324;2023-11-21T07:35:12;39.40;;;17.50;;
73951;SDS011;62304;47.662;18.324;2023-11-21T07:38:16;36.83;;;19.35;;
73951;SDS011;62304;47.662;18.324;2023-11-21T07:41:19;37.03;;;19.23;;
73951;SDS011;62304;47.662;18.324;2023-11-21T07:44:32;35.60;;;18.23;;
73951;SDS011;62304;47.662;18.324;2023-11-21T07:47:36;39.42;;;21.37;;
73951;SDS011;62304;47.662;18.324;2023-11-21T07:50:39;37.70;;;20.27;;
73951;SDS011;62304;47.662;18.324;2023-11-21T07:53:42;38.05;;;19.75;;
73951;SDS011;62304;47.662;18.324;2023-11-21T07:56:46;56.20;;;24.27;;
73951;SDS011;62304;47.662;18.324;2023-11-21T07:59:50;58.97;;;25.70;;
73951;SDS011;62304;47.662;18.324;2023-11-21T08:02:53;57.42;;;25.05;;
73951;SDS011;62304;47.662;18.324;2023-11-21T08:05:57;58.13;;;25.02;;
73951;SDS011;62304;47.662;18.324;2023-11-21T08:09:06;55.95;;;27.13;;
73951;SDS011;62304;47.662;18.324;2023-11-21T08:12:11;53.27;;;26.67;;
73951;SDS011;62304;47.662;18.324;2023-11-21T08:15:14;63.97;;;30.73;;
73951;SDS011;62304;47.662;18.324;2023-11-21T08:18:20;67.72;;;32.47;;
73951;SDS011;62304;47.662;18.324;2023-11-21T08:21:23;68.87;;;33.13;;
73951;SDS011;62304;47.662;18.324;2023-11-21T08:24:27;64.37;;;32.15;;
73951;SDS011;62304;47.662;18.324;2023-11-21T08:27:30;70.23;;;36.63;;
73951;SDS011;62304;47.662;18.324;2023-11-21T08:30:34;74.47;;;39.23;;
73951;SDS011;62304;47.662;18.324;2023-11-21T08:33:37;66.22;;;35.70;;
73951;SDS011;62304;47.662;18.324;2023-11-21T08:36:41;69.57;;;38.70;;
73951;SDS011;62304;47.662;18.324;2023-11-21T08:39:47;62.72;;;35.25;;
73951;SDS011;62304;47.662;18.324;2023-11-21T08:42:57;58.73;;;32.13;;
73951;SDS011;62304;47.662;18.324;2023-11-21T08:46:03;61.87;;;33.37;;
73951;SDS011;62304;47.662;18.324;2023-11-21T08:49:07;65.30;;;32.05;;
73951;SDS011;62304;47.662;18.324;2023-11-21T08:52:10;66.80;;;35.70;;
73951;SDS011;62304;47.662;18.324;2023-11-21T08:55:14;88.10;;;45.78;;
73951;SDS011;62304;47.662;18.324;2023-11-21T08:58:17;78.37;;;39.30;;
73951;SDS011;62304;47.662;18.324;2023-11-21T09:01:20;76.40;;;40.80;;
73951;SDS011;62304;47.662;18.324;2023-11-21T09:04:23;85.55;;;47.92;;
73951;SDS011;62304;47.662;18.324;2023-11-21T09:07:26;52.92;;;27.27;;
73951;SDS011;62304;47.662;18.324;2023-11-21T09:10:29;44.35;;;22.83;;
73951;SDS011;62304;47.662;18.324;2023-11-21T09:13:33;34.77;;;17.97;;
73951;SDS011;62304;47.662;18.324;2023-11-21T09:16:41;38.70;;;20.97;;
73951;SDS011;62304;47.662;18.324;2023-11-21T09:19:45;42.85;;;18.90;;
73951;SDS011;62304;47.662;18.324;2023-11-21T09:22:52;31.52;;;17.65;;
73951;SDS011;62304;47.662;18.324;2023-11-21T09:25:56;27.60;;;15.23;;
73951;SDS011;62304;47.662;18.324;2023-11-21T09:29:03;28.83;;;16.83;;
73951;SDS011;62304;47.662;18.324;2023-11-21T09:32:07;41.43;;;18.97;;
73951;SDS011;62304;47.662;18.324;2023-11-21T09:35:11;27.08;;;15.30;;
73951;SDS011;62304;47.662;18.324;2023-11-21T09:38:17;30.15;;;12.20;;
73951;SDS011;62304;47.662;18.324;2023-11-21T09:41:26;19.73;;;10.02;;
73951;SDS011;62304;47.662;18.324;2023-11-21T09:47:54;22.80;;;11.73;;
73951;SDS011;62304;47.662;18.324;2023-11-21T09:50:59;36.88;;;23.20;;
73951;SDS011;62304;47.662;18.324;2023-11-21T09:54:05;29.50;;;14.35;;
73951;SDS011;62304;47.662;18.324;2023-11-21T09:57:10;28.42;;;14.60;;
73951;SDS011;62304;47.662;18.324;2023-11-21T10:00:15;26.67;;;13.70;;
73951;SDS011;62304;47.662;18.324;2023-11-21T10:03:20;24.70;;;13.20;;
73951;SDS011;62304;47.662;18.324;2023-11-21T10:06:24;29.27;;;13.88;;
73951;SDS011;62304;47.662;18.324;2023-11-21T10:09:29;28.87;;;12.30;;
73951;SDS011;62304;47.662;18.324;2023-11-21T10:12:33;33.08;;;14.45;;
73951;SDS011;62304;47.662;18.324;2023-11-21T10:15:38;21.97;;;10.50;;
73951;SDS011;62304;47.662;18.324;2023-11-21T10:18:48;19.73;;;9.30;;
73951;SDS011;62304;47.662;18.324;2023-11-21T10:21:55;19.15;;;9.07;;
73951;SDS011;62304;47.662;18.324;2023-11-21T10:25:02;19.52;;;9.20;;
73951;SDS011;62304;47.662;18.324;2023-11-21T10:28:05;19.83;;;7.65;;
73951;SDS011;62304;47.662;18.324;2023-11-21T10:31:09;18.67;;;8.63;;
73951;SDS011;62304;47.662;18.324;2023-11-21T10:34:18;24.50;;;9.33;;
73951;SDS011;62304;47.662;18.324;2023-11-21T10:37:22;17.10;;;8.05;;
73951;SDS011;62304;47.662;18.324;2023-11-21T10:40:27;21.48;;;8.50;;
73951;SDS011;62304;47.662;18.324;2023-11-21T10:43:31;22.33;;;9.00;;
73951;SDS011;62304;47.662;18.324;2023-11-21T10:46:38;30.23;;;12.43;;
73951;SDS011;62304;47.662;18.324;2023-11-21T10:49:42;31.43;;;12.03;;
73951;SDS011;62304;47.662;18.324;2023-11-21T10:52:46;25.83;;;10.48;;
73951;SDS011;62304;47.662;18.324;2023-11-21T10:55:49;12.95;;;6.72;;
73951;SDS011;62304;47.662;18.324;2023-11-21T10:59:04;14.85;;;7.43;;
73951;SDS011;62304;47.662;18.324;2023-11-21T11:02:19;16.37;;;6.87;;
73951;SDS011;62304;47.662;18.324;2023-11-21T11:05:39;14.37;;;5.73;;
73951;SDS011;62304;47.662;18.324;2023-11-21T11:08:48;12.77;;;6.22;;
73951;SDS011;62304;47.662;18.324;2023-11-21T11:11:52;10.18;;;6.30;;
73951;SDS011;62304;47.662;18.324;2023-11-21T11:14:56;12.35;;;5.97;;
73951;SDS011;62304;47.662;18.324;2023-11-21T11:18:01;11.67;;;5.43;;
73951;SDS011;62304;47.662;18.324;2023-11-21T11:21:09;16.07;;;5.97;;
73951;SDS011;62304;47.662;18.324;2023-11-21T11:28:30;15.90;;;7.32;;
73951;SDS011;62304;47.662;18.324;2023-11-21T11:35:21;13.87;;;6.73;;
73951;SDS011;62304;47.662;18.324;2023-11-21T11:38:34;15.70;;;7.67;;
73951;SDS011;62304;47.662;18.324;2023-11-21T11:41:40;13.82;;;6.20;;
73951;SDS011;62304;47.662;18.324;2023-11-21T11:44:49;17.95;;;6.20;;
73951;SDS011;62304;47.662;18.324;2023-11-21T11:48:02;17.12;;;6.43;;
73951;SDS011;62304;47.662;18.324;2023-11-21T11:51:12;14.63;;;6.70;;
73951;SDS011;62304;47.662;18.324;2023-11-21T11:54:35;20.10;;;7.70;;
73951;SDS011;62304;47.662;18.324;2023-11-21T11:57:40;13.60;;;6.62;;
73951;SDS011;62304;47.662;18.324;2023-11-21T12:00:44;13.30;;;5.40;;
73951;SDS011;62304;47.662;18.324;2023-11-21T12:07:46;22.63;;;7.67;;
73951;SDS011;62304;47.662;18.324;2023-11-21T12:11:00;13.87;;;5.90;;
73951;SDS011;62304;47.662;18.324;2023-11-21T12:14:04;10.18;;;4.45;;
73951;SDS011;62304;47.662;18.324;2023-11-21T12:17:09;16.48;;;4.70;;
73951;SDS011;62304;47.662;18.324;2023-11-21T12:20:13;11.00;;;4.80;;
73951;SDS011;62304;47.662;18.324;2023-11-21T12:23:23;12.50;;;4.77;;
73951;SDS011;62304;47.662;18.324;2023-11-21T12:26:29;10.97;;;4.27;;
73951;SDS011;62304;47.662;18.324;2023-11-21T12:29:33;11.60;;;4.75;;
73951;SDS011;62304;47.662;18.324;2023-11-21T12:32:37;20.00;;;5.37;;
73951;SDS011;62304;47.662;18.324;2023-11-21T12:35:40;19.80;;;7.15;;
73951;SDS011;62304;47.662;18.324;2023-11-21T12:38:45;12.03;;;4.43;;
73951;SDS011;62304;47.662;18.324;2023-11-21T12:41:49;21.47;;;5.43;;
73951;SDS011;62304;47.662;18.324;2023-11-21T12:48:11;9.13;;;4.47;;
73951;SDS011;62304;47.662;18.324;2023-11-21T12:51:14;10.13;;;4.22;;
73951;SDS011;62304;47.662;18.324;2023-11-21T12:54:21;8.80;;;3.60;;
73951;SDS011;62304;47.662;18.324;2023-11-21T12:57:27;9.90;;;3.70;;
73951;SDS011;62304;47.662;18.324;2023-11-21T13:00:31;13.02;;;4.20;;
73951;SDS011;62304;47.662;18.324;2023-11-21T13:03:39;7.22;;;3.83;;
73951;SDS011;62304;47.662;18.324;2023-11-21T13:06:43;9.15;;;4.45;;
73951;SDS011;62304;47.662;18.324;2023-11-21T13:09:46;8.60;;;4.50;;
73951;SDS011;62304;47.662;18.324;2023-11-21T13:12:50;9.97;;;4.10;;
73951;SDS011;62304;47.662;18.324;2023-11-21T13:15:55;12.68;;;5.72;;
73951;SDS011;62304;47.662;18.324;2023-11-21T13:19:00;9.30;;;4.87;;
73951;SDS011;62304;47.662;18.324;2023-11-21T13:22:03;11.27;;;5.40;;
73951;SDS011;62304;47.662;18.324;2023-11-21T13:25:08;11.93;;;5.60;;
73951;SDS011;62304;47.662;18.324;2023-11-21T13:28:11;12.23;;;5.40;;
73951;SDS011;62304;47.662;18.324;2023-11-21T13:31:17;11.73;;;5.28;;
73951;SDS011;62304;47.662;18.324;2023-11-21T13:34:30;9.07;;;4.85;;
73951;SDS011;62304;47.662;18.324;2023-11-21T13:37:36;8.18;;;4.30;;
73951;SDS011;62304;47.662;18.324;2023-11-21T13:40:40;9.87;;;4.23;;
73951;SDS011;62304;47.662;18.324;2023-11-21T13:43:48;8.63;;;4.97;;
73951;SDS011;62304;47.662;18.324;2023-11-21T13:47:03;11.35;;;4.53;;
73951;SDS011;62304;47.662;18.324;2023-11-21T13:50:08;9.93;;;4.10;;
73951;SDS011;62304;47.662;18.324;2023-11-21T13:53:19;9.75;;;5.07;;
73951;SDS011;62304;47.662;18.324;2023-11-21T13:56:25;10.97;;;5.30;;
73951;SDS011;62304;47.662;18.324;2023-11-21T13:59:30;10.00;;;4.97;;
73951;SDS011;62304;47.662;18.324;2023-11-21T14:02:35;12.27;;;5.40;;
73951;SDS011;62304;47.662;18.324;2023-11-21T14:05:43;14.38;;;5.62;;
73951;SDS011;62304;47.662;18.324;2023-11-21T14:08:50;13.77;;;5.53;;
73951;SDS011;62304;47.662;18.324;2023-11-21T14:11:56;10.73;;;5.87;;
73951;SDS011;62304;47.662;18.324;2023-11-21T14:14:59;17.80;;;6.60;;
73951;SDS011;62304;47.662;18.324;2023-11-21T14:18:04;15.48;;;6.10;;
73951;SDS011;62304;47.662;18.324;2023-11-21T14:21:12;19.70;;;6.20;;
73951;SDS011;62304;47.662;18.324;2023-11-21T14:24:17;17.52;;;5.97;;
73951;SDS011;62304;47.662;18.324;2023-11-21T14:27:20;14.07;;;6.43;;
73951;SDS011;62304;47.662;18.324;2023-11-21T14:30:23;18.50;;;7.20;;
73951;SDS011;62304;47.662;18.324;2023-11-21T14:33:28;16.50;;;7.40;;
73951;SDS011;62304;47.662;18.324;2023-11-21T14:36:32;19.15;;;7.87;;
73951;SDS011;62304;47.662;18.324;2023-11-21T14:39:35;28.50;;;10.38;;
73951;SDS011;62304;47.662;18.324;2023-11-21T14:42:43;25.27;;;10.30;;
73951;SDS011;62304;47.662;18.324;2023-11-21T14:45:49;22.93;;;9.33;;
73951;SDS011;62304;47.662;18.324;2023-11-21T14:48:53;27.98;;;12.30;;
73951;SDS011;62304;47.662;18.324;2023-11-21T14:52:15;29.30;;;11.75;;
73951;SDS011;62304;47.662;18.324;2023-11-21T14:55:38;26.45;;;10.55;;
73951;SDS011;62304;47.662;18.324;2023-11-21T14:58:54;24.57;;;10.43;;
73951;SDS011;62304;47.662;18.324;2023-11-21T15:02:00;32.33;;;13.33;;
73951;SDS011;62304;47.662;18.324;2023-11-21T15:05:17;45.12;;;14.65;;
73951;SDS011;62304;47.662;18.324;2023-11-21T15:08:23;44.17;;;16.08;;
73951;SDS011;62304;47.662;18.324;2023-11-21T15:11:34;49.80;;;16.37;;
73951;SDS011;62304;47.662;18.324;2023-11-21T15:14:50;49.43;;;17.63;;
73951;SDS011;62304;47.662;18.324;2023-11-21T15:17:57;47.53;;;18.80;;
73951;SDS011;62304;47.662;18.324;2023-11-21T15:21:04;54.15;;;25.05;;
73951;SDS011;62304;47.662;18.324;2023-11-21T15:24:08;44.17;;;19.87;;
73951;SDS011;62304;47.662;18.324;2023-11-21T15:27:17;46.88;;;20.58;;
73951;SDS011;62304;47.662;18.324;2023-11-21T15:30:22;48.47;;;20.17;;
73951;SDS011;62304;47.662;18.324;2023-11-21T15:33:43;50.53;;;20.43;;
73951;SDS011;62304;47.662;18.324;2023-11-21T15:36:50;51.13;;;21.70;;
73951;SDS011;62304;47.662;18.324;2023-11-21T15:39:58;53.42;;;24.67;;
73951;SDS011;62304;47.662;18.324;2023-11-21T15:43:01;58.10;;;26.42;;
73951;SDS011;62304;47.662;18.324;2023-11-21T15:46:09;71.53;;;33.30;;
73951;SDS011;62304;47.662;18.324;2023-11-21T15:49:12;67.10;;;29.60;;
73951;SDS011;62304;47.662;18.324;2023-11-21T15:52:16;66.07;;;26.73;;
73951;SDS011;62304;47.662;18.324;2023-11-21T15:55:21;69.07;;;30.20;;
73951;SDS011;62304;47.662;18.324;2023-11-21T15:58:24;75.87;;;36.42;;
73951;SDS011;62304;47.662;18.324;2023-11-21T16:01:29;80.17;;;38.07;;
73951;SDS011;62304;47.662;18.324;2023-11-21T16:04:34;67.97;;;30.83;;
73951;SDS011;62304;47.662;18.324;2023-11-21T16:07:39;70.45;;;31.80;;
73951;SDS011;62304;47.662;18.324;2023-11-21T16:10:43;73.70;;;36.22;;
73951;SDS011;62304;47.662;18.324;2023-11-21T16:13:47;69.25;;;34.97;;
73951;SDS011;62304;47.662;18.324;2023-11-21T16:16:51;71.27;;;36.73;;
73951;SDS011;62304;47.662;18.324;2023-11-21T16:19:58;81.55;;;37.47;;
73951;SDS011;62304;47.662;18.324;2023-11-21T16:23:03;72.97;;;37.40;;
73951;SDS011;62304;47.662;18.324;2023-11-21T16:26:06;107.85;;;52.65;;
73951;SDS011;62304;47.662;18.324;2023-11-21T16:29:09;88.25;;;45.30;;
73951;SDS011;62304;47.662;18.324;2023-11-21T16:32:14;95.17;;;46.70;;
73951;SDS011;62304;47.662;18.324;2023-11-21T16:35:19;92.83;;;45.67;;
73951;SDS011;62304;47.662;18.324;2023-11-21T16:38:28;94.57;;;46.40;;
73951;SDS011;62304;47.662;18.324;2023-11-21T16:41:31;96.97;;;40.75;;
73951;SDS011;62304;47.662;18.324;2023-11-21T16:44:40;94.70;;;45.70;;
73951;SDS011;62304;47.662;18.324;2023-11-21T16:47:43;109.67;;;51.07;;
73951;SDS011;62304;47.662;18.324;2023-11-21T16:50:46;97.03;;;46.50;;
73951;SDS011;62304;47.662;18.324;2023-11-21T16:53:49;97.65;;;45.30;;
73951;SDS011;62304;47.662;18.324;2023-11-21T16:56:53;80.43;;;40.88;;
73951;SDS011;62304;47.662;18.324;2023-11-21T16:59:56;95.45;;;43.30;;
73951;SDS011;62304;47.662;18.324;2023-11-21T17:02:59;107.43;;;44.77;;
73951;SDS011;62304;47.662;18.324;2023-11-21T17:06:03;91.95;;;43.70;;
73951;SDS011;62304;47.662;18.324;2023-11-21T17:09:08;134.68;;;59.85;;
73951;SDS011;62304;47.662;18.324;2023-11-21T17:12:12;124.55;;;57.00;;
73951;SDS011;62304;47.662;18.324;2023-11-21T17:15:16;121.68;;;55.72;;
73951;SDS011;62304;47.662;18.324;2023-11-21T17:18:19;123.70;;;56.70;;
73951;SDS011;62304;47.662;18.324;2023-11-21T17:21:29;104.25;;;47.60;;
73951;SDS011;62304;47.662;18.324;2023-11-21T17:24:43;105.05;;;51.20;;
73951;SDS011;62304;47.662;18.324;2023-11-21T17:27:47;106.15;;;51.85;;
73951;SDS011;62304;47.662;18.324;2023-11-21T17:30:50;103.47;;;50.75;;
73951;SDS011;62304;47.662;18.324;2023-11-21T17:33:59;94.00;;;46.17;;
73951;SDS011;62304;47.662;18.324;2023-11-21T17:37:05;92.53;;;45.42;;
73951;SDS011;62304;47.662;18.324;2023-11-21T17:40:08;92.03;;;44.60;;
73951;SDS011;62304;47.662;18.324;2023-11-21T17:43:14;97.85;;;45.30;;
73951;SDS011;62304;47.662;18.324;2023-11-21T17:46:18;86.15;;;43.85;;
73951;SDS011;62304;47.662;18.324;2023-11-21T17:49:24;89.27;;;42.60;;
73951;SDS011;62304;47.662;18.324;2023-11-21T17:52:30;86.33;;;42.57;;
73951;SDS011;62304;47.662;18.324;2023-11-21T17:55:34;85.72;;;43.13;;
73951;SDS011;62304;47.662;18.324;2023-11-21T17:58:36;84.30;;;41.60;;
73951;SDS011;62304;47.662;18.324;2023-11-21T18:01:40;95.85;;;43.20;;
73951;SDS011;62304;47.662;18.324;2023-11-21T18:04:45;92.50;;;46.47;;
73951;SDS011;62304;47.662;18.324;2023-11-21T18:07:48;91.85;;;46.37;;
73951;SDS011;62304;47.662;18.324;2023-11-21T18:10:56;114.72;;;47.50;;